Time;durP1;ratioP1;P1;durP2;ratioP2;P2;SDS_P1;SDS_P2;PMS_P1;PMS_P2;Temp;Humidity;BMP_temperature;BMP_pressure;BME280_temperature;BME280_humidity;BME280_pressure;Samples;Min_cycle;Max_cycle;Signal;HPM_P1;HPM_P2
2023/10/29 00:01:06;;;;;;;9.23;9.03;;;12.80;99.90;;;;;;5017681;27;20469;-73
2023/10/29 00:03:34;;;;;;;8.43;8.33;;;12.90;99.90;;;;;;5020552;27;20464;-71
2023/10/29 00:06:01;;;;;;;8.90;8.80;;;12.90;99.90;;;;;;5022458;28;20796;-71
2023/10/29 00:08:28;;;;;;;9.30;9.10;;;13.00;99.90;;;;;;5026882;27;20814;-73
2023/10/29 00:10:54;;;;;;;8.77;8.67;;;13.10;99.90;;;;;;5039214;27;20822;-71
2023/10/29 00:13:25;;;;;;;8.93;8.77;;;13.10;99.90;;;;;;5016686;28;20481;-72
2023/10/29 00:15:52;;;;;;;8.93;8.80;;;13.30;99.90;;;;;;5012059;28;20871;-72
2023/10/29 00:18:19;;;;;;;9.03;8.83;;;13.30;99.90;;;;;;5018488;27;20466;-72
2023/10/29 00:20:46;;;;;;;9.23;9.03;;;13.40;99.90;;;;;;5025651;28;20475;-72
2023/10/29 00:23:14;;;;;;;9.23;9.03;;;13.50;99.90;;;;;;5021911;28;20471;-71
2023/10/29 00:25:41;;;;;;;9.43;9.23;;;13.60;99.90;;;;;;5024694;27;20463;-70
2023/10/29 00:28:11;;;;;;;9.20;9.00;;;13.60;99.90;;;;;;5026490;28;20449;-72
2023/10/29 00:30:40;;;;;;;8.80;8.63;;;13.70;99.90;;;;;;5011664;28;20838;-71
2023/10/29 00:33:07;;;;;;;8.70;8.60;;;13.80;99.90;;;;;;5021362;28;20547;-73
2023/10/29 00:35:34;;;;;;;8.47;8.37;;;13.80;99.90;;;;;;5023099;28;20560;-72
2023/10/29 00:38:01;;;;;;;9.37;9.17;;;13.90;99.90;;;;;;5024529;28;20470;-72
2023/10/29 00:40:30;;;;;;;9.60;9.40;;;13.90;99.90;;;;;;5021085;28;20507;-73
2023/10/29 00:42:57;;;;;;;8.77;8.67;;;13.90;99.90;;;;;;5012474;28;20474;-72
2023/10/29 00:45:24;;;;;;;8.90;8.70;;;13.90;99.90;;;;;;5025197;28;20513;-73
2023/10/29 00:47:53;;;;;;;8.27;8.17;;;14.00;99.90;;;;;;5024464;28;20464;-70
2023/10/29 00:50:19;;;;;;;8.50;8.40;;;14.10;99.90;;;;;;5011692;28;20464;-71
2023/10/29 00:52:47;;;;;;;8.60;8.50;;;14.10;99.90;;;;;;5017562;28;20473;-70
2023/10/29 00:55:14;;;;;;;8.47;8.37;;;14.10;99.90;;;;;;5023206;27;20502;-71
2023/10/29 00:57:42;;;;;;;8.57;8.47;;;14.00;99.90;;;;;;5028555;27;20547;-71
2023/10/29 01:00:10;;;;;;;8.20;8.10;;;14.00;99.90;;;;;;5029216;27;20510;-71
2023/10/29 01:02:37;;;;;;;8.53;8.43;;;14.00;99.90;;;;;;5021906;27;20470;-70
2023/10/29 01:05:06;;;;;;;8.27;8.17;;;14.00;99.90;;;;;;5017789;27;20973;-72
2023/10/29 01:07:34;;;;;;;8.10;8.00;;;14.00;99.90;;;;;;5019615;27;20478;-70
2023/10/29 01:10:00;;;;;;;7.90;7.80;;;14.00;99.90;;;;;;5030053;27;20453;-71
2023/10/29 01:12:28;;;;;;;8.33;8.23;;;14.00;99.90;;;;;;5020267;27;20462;-68
2023/10/29 01:14:55;;;;;;;8.17;8.07;;;14.10;99.90;;;;;;5027064;27;20505;-71
2023/10/29 01:17:23;;;;;;;8.20;8.10;;;14.10;99.90;;;;;;5029367;28;20460;-71
2023/10/29 01:19:50;;;;;;;7.53;7.43;;;14.10;99.90;;;;;;5021061;27;20461;-71
2023/10/29 01:22:19;;;;;;;8.20;8.10;;;14.20;99.90;;;;;;5018932;27;20949;-73
2023/10/29 01:24:46;;;;;;;7.80;7.70;;;14.20;99.90;;;;;;5024894;27;20706;-71
2023/10/29 01:27:13;;;;;;;9.57;9.37;;;14.30;99.90;;;;;;5021683;27;20465;-70
2023/10/29 01:29:40;;;;;;;10.23;10.03;;;14.20;99.90;;;;;;5025529;27;20457;-70
2023/10/29 01:32:08;;;;;;;10.47;10.27;;;14.10;99.90;;;;;;5029034;27;20968;-72
2023/10/29 01:34:35;;;;;;;10.07;9.87;;;14.00;99.90;;;;;;5029045;27;21019;-72
2023/10/29 01:37:01;;;;;;;9.80;9.60;;;14.00;99.90;;;;;;5022972;27;20490;-70
2023/10/29 01:39:29;;;;;;;9.83;9.63;;;14.00;99.90;;;;;;5022483;27;20473;-71
2023/10/29 01:41:57;;;;;;;9.73;9.53;;;14.00;99.90;;;;;;5022458;27;20515;-71
2023/10/29 01:44:25;;;;;;;9.90;9.70;;;13.90;99.90;;;;;;5028749;27;21008;-70
2023/10/29 01:46:51;;;;;;;10.70;10.40;;;13.90;99.90;;;;;;5020552;27;20465;-69
2023/10/29 01:49:18;;;;;;;10.93;10.63;;;13.80;99.90;;;;;;5028650;27;20466;-71
2023/10/29 01:51:45;;;;;;;11.90;11.60;;;13.80;99.90;;;;;;5028533;27;20460;-70
2023/10/29 01:54:11;;;;;;;12.47;12.07;;;13.80;99.90;;;;;;5028373;27;20488;-71
2023/10/29 01:56:40;;;;;;;12.50;12.10;;;13.70;99.90;;;;;;5021012;27;20463;-72
2023/10/29 01:59:07;;;;;;;11.97;11.67;;;13.70;99.90;;;;;;5016997;27;20506;-70
2023/10/29 02:01:34;;;;;;;11.97;11.67;;;13.80;99.90;;;;;;5022295;27;20460;-70
2023/10/29 02:04:01;;;;;;;11.47;11.17;;;13.80;99.90;;;;;;5019689;27;20961;-71
2023/10/29 02:06:28;;;;;;;10.97;10.67;;;13.80;99.90;;;;;;5025944;27;20457;-71
2023/10/29 02:08:55;;;;;;;10.90;10.60;;;13.80;99.90;;;;;;5028119;27;20463;-70
2023/10/29 02:11:21;;;;;;;10.03;9.83;;;13.80;99.90;;;;;;5025055;28;20471;-71
2023/10/29 02:13:49;;;;;;;10.30;10.10;;;13.70;99.90;;;;;;5016580;27;20458;-70
2023/10/29 02:16:16;;;;;;;9.60;9.40;;;13.70;99.90;;;;;;5015707;27;20749;-70
2023/10/29 02:18:43;;;;;;;9.90;9.70;;;13.70;99.90;;;;;;5023481;27;20541;-71
2023/10/29 02:21:10;;;;;;;9.63;9.43;;;13.70;99.90;;;;;;5027404;27;20460;-71
2023/10/29 02:23:38;;;;;;;8.90;8.73;;;13.70;99.90;;;;;;5013948;27;20468;-71
2023/10/29 02:26:05;;;;;;;9.00;8.80;;;13.70;99.90;;;;;;5026278;27;20463;-71
2023/10/29 02:28:32;;;;;;;9.03;8.83;;;13.70;99.90;;;;;;5023011;27;20467;-71
2023/10/29 02:30:58;;;;;;;8.23;8.13;;;13.70;99.90;;;;;;5018461;27;20508;-70
2023/10/29 02:33:25;;;;;;;8.70;8.60;;;13.70;99.90;;;;;;5027784;27;20458;-72
2023/10/29 02:35:52;;;;;;;8.40;8.30;;;13.60;99.90;;;;;;5025992;27;20489;-72
2023/10/29 02:38:19;;;;;;;8.20;8.10;;;13.70;99.90;;;;;;5020672;27;20864;-72
2023/10/29 02:40:47;;;;;;;8.30;8.20;;;13.70;99.90;;;;;;5022992;28;20472;-70
2023/10/29 02:43:14;;;;;;;7.87;7.77;;;13.70;99.90;;;;;;5018912;27;20519;-72
2023/10/29 02:45:42;;;;;;;7.20;7.10;;;13.80;99.90;;;;;;5024438;27;20586;-72
2023/10/29 02:48:09;;;;;;;7.53;7.43;;;13.80;99.90;;;;;;5019243;27;20463;-71
2023/10/29 02:50:38;;;;;;;7.57;7.47;;;13.80;99.90;;;;;;5026565;27;20507;-73
2023/10/29 02:53:05;;;;;;;7.53;7.43;;;13.90;99.90;;;;;;5027225;28;20932;-72
2023/10/29 02:55:32;;;;;;;7.43;7.33;;;13.80;99.90;;;;;;5023273;27;21026;-70
2023/10/29 02:58:01;;;;;;;7.47;7.37;;;13.90;99.90;;;;;;5014028;27;20462;-71
2023/10/29 03:00:28;;;;;;;7.37;7.27;;;13.80;99.90;;;;;;5020408;27;20450;-71
2023/10/29 03:02:55;;;;;;;7.40;7.30;;;13.80;99.90;;;;;;5021133;27;20469;-71
2023/10/29 03:05:22;;;;;;;7.33;7.23;;;13.80;99.90;;;;;;5024906;27;20461;-73
2023/10/29 03:07:48;;;;;;;7.10;7.00;;;13.90;99.90;;;;;;5027983;27;20464;-71
2023/10/29 03:10:15;;;;;;;7.57;7.47;;;13.90;99.90;;;;;;5028035;27;20461;-68
2023/10/29 03:12:42;;;;;;;7.23;7.13;;;13.90;99.90;;;;;;5026577;27;20459;-72
2023/10/29 03:15:11;;;;;;;7.30;7.20;;;13.90;99.90;;;;;;5022543;27;20491;-70
2023/10/29 03:17:38;;;;;;;7.67;7.57;;;13.90;99.90;;;;;;5015347;27;20483;-70
2023/10/29 03:20:06;;;;;;;7.50;7.40;;;13.90;99.90;;;;;;5018841;27;20448;-71
2023/10/29 03:22:33;;;;;;;7.50;7.40;;;13.90;99.90;;;;;;5023764;28;20526;-69
2023/10/29 03:25:00;;;;;;;7.77;7.67;;;13.90;99.90;;;;;;5020015;27;20492;-71
2023/10/29 03:27:27;;;;;;;7.30;7.20;;;13.90;99.90;;;;;;5019659;27;20506;-70
2023/10/29 03:29:54;;;;;;;7.37;7.27;;;13.90;99.90;;;;;;5018441;27;20490;-73
2023/10/29 03:32:22;;;;;;;7.57;7.47;;;13.90;99.90;;;;;;5025132;28;20485;-72
2023/10/29 03:34:49;;;;;;;7.37;7.27;;;13.90;99.90;;;;;;5013377;27;20490;-70
2023/10/29 03:37:15;;;;;;;7.50;7.40;;;14.00;99.90;;;;;;5026707;27;20558;-71
2023/10/29 03:39:42;;;;;;;7.70;7.60;;;14.00;99.90;;;;;;5027049;27;20463;-70
2023/10/29 03:42:09;;;;;;;7.87;7.77;;;14.00;99.90;;;;;;5019515;27;20574;-70
2023/10/29 03:44:36;;;;;;;7.60;7.50;;;14.00;99.90;;;;;;5015234;27;20497;-72
2023/10/29 03:47:03;;;;;;;7.63;7.53;;;14.10;99.90;;;;;;5021046;28;20469;-72
2023/10/29 03:49:31;;;;;;;7.60;7.50;;;14.10;99.90;;;;;;5022683;27;20456;-71
2023/10/29 03:51:57;;;;;;;7.70;7.60;;;14.10;99.90;;;;;;5027414;28;21277;-71
2023/10/29 03:54:25;;;;;;;8.47;8.37;;;14.10;99.90;;;;;;5026981;28;20487;-71
2023/10/29 03:56:51;;;;;;;7.80;7.70;;;14.10;99.90;;;;;;5015439;28;20549;-73
2023/10/29 03:59:18;;;;;;;8.07;7.97;;;14.10;99.90;;;;;;5020791;27;20472;-71
2023/10/29 04:01:45;;;;;;;8.20;8.10;;;14.10;99.90;;;;;;5026583;27;20471;-71
2023/10/29 04:04:12;;;;;;;8.10;8.00;;;14.10;99.90;;;;;;5015994;27;20476;-72
2023/10/29 04:06:40;;;;;;;8.07;7.97;;;14.20;99.90;;;;;;5017714;28;20463;-70
2023/10/29 04:09:09;;;;;;;8.17;8.07;;;14.20;99.90;;;;;;5022598;28;20659;-70
2023/10/29 04:11:37;;;;;;;8.27;8.17;;;14.20;99.90;;;;;;5017560;27;20516;-71
2023/10/29 04:14:03;;;;;;;8.30;8.20;;;14.20;99.90;;;;;;5023547;28;20459;-72
2023/10/29 04:16:30;;;;;;;8.77;8.67;;;14.30;99.90;;;;;;5027065;28;20494;-72
2023/10/29 04:18:57;;;;;;;8.50;8.40;;;14.30;99.90;;;;;;5023626;27;20463;-70
2023/10/29 04:21:23;;;;;;;8.13;8.03;;;14.30;99.90;;;;;;5026196;28;20454;-72
2023/10/29 04:23:51;;;;;;;9.10;8.90;;;14.40;99.90;;;;;;5018530;28;20466;-70
2023/10/29 04:26:18;;;;;;;9.10;8.90;;;14.40;99.90;;;;;;5026186;28;20922;-70
2023/10/29 04:28:45;;;;;;;8.87;8.77;;;14.40;99.90;;;;;;5013840;27;20850;-72
2023/10/29 04:31:12;;;;;;;9.13;8.93;;;14.40;99.90;;;;;;5020768;28;20498;-73
2023/10/29 04:33:39;;;;;;;8.40;8.30;;;14.40;99.90;;;;;;5022067;28;20462;-71
2023/10/29 04:36:06;;;;;;;8.67;8.57;;;14.40;99.90;;;;;;5021742;28;20505;-71
2023/10/29 04:38:35;;;;;;;9.40;9.20;;;14.50;99.90;;;;;;5019857;27;20458;-71
2023/10/29 04:41:04;;;;;;;9.03;8.87;;;14.40;99.90;;;;;;5015480;27;20511;-71
2023/10/29 04:43:30;;;;;;;9.43;9.23;;;14.50;99.90;;;;;;5012321;28;20869;-72
2023/10/29 04:45:57;;;;;;;9.80;9.60;;;14.50;99.90;;;;;;5014918;28;20474;-71
2023/10/29 04:48:24;;;;;;;9.83;9.63;;;14.50;99.90;;;;;;5013144;28;20557;-72
2023/10/29 04:50:51;;;;;;;8.80;8.70;;;14.50;99.90;;;;;;5026325;28;20465;-71
2023/10/29 04:53:17;;;;;;;9.13;8.93;;;14.50;99.90;;;;;;5025888;28;20454;-72
2023/10/29 04:55:44;;;;;;;9.50;9.30;;;14.50;99.90;;;;;;5025593;28;20485;-72
2023/10/29 04:58:13;;;;;;;9.40;9.20;;;14.50;99.90;;;;;;5021240;28;20569;-70
2023/10/29 05:00:40;;;;;;;10.07;9.87;;;14.50;99.90;;;;;;5018070;28;20976;-72
2023/10/29 05:03:06;;;;;;;9.40;9.20;;;14.50;99.90;;;;;;5008716;28;20450;-71
2023/10/29 05:05:33;;;;;;;9.23;9.03;;;14.40;99.90;;;;;;5019535;28;20452;-71
2023/10/29 05:08:00;;;;;;;9.27;9.07;;;14.40;99.90;;;;;;5022410;28;20971;-71
2023/10/29 05:10:28;;;;;;;9.47;9.27;;;14.40;99.90;;;;;;5042781;28;20470;-73
2023/10/29 05:12:56;;;;;;;9.27;9.07;;;14.40;99.90;;;;;;5010863;28;20781;-72
2023/10/29 05:15:24;;;;;;;9.60;9.40;;;14.40;99.90;;;;;;5013099;28;20924;-73
2023/10/29 05:17:51;;;;;;;9.70;9.50;;;14.40;99.90;;;;;;5015807;28;21156;-70
2023/10/29 05:20:18;;;;;;;9.53;9.33;;;14.50;99.90;;;;;;5019338;28;21090;-72
2023/10/29 05:22:45;;;;;;;9.77;9.57;;;14.50;99.90;;;;;;5017019;28;20469;-72
2023/10/29 05:25:11;;;;;;;9.80;9.60;;;14.60;99.90;;;;;;5017499;28;20957;-72
2023/10/29 05:27:38;;;;;;;9.70;9.50;;;14.60;99.90;;;;;;5014464;28;20472;-69
2023/10/29 05:30:07;;;;;;;10.00;9.80;;;14.60;99.90;;;;;;5016626;28;20875;-71
2023/10/29 05:32:35;;;;;;;9.73;9.53;;;14.60;99.90;;;;;;5011018;28;21001;-71
2023/10/29 05:35:03;;;;;;;9.90;9.70;;;14.50;99.90;;;;;;5016319;28;20513;-70
2023/10/29 05:37:29;;;;;;;10.10;9.90;;;14.50;99.90;;;;;;5017480;28;20955;-70
2023/10/29 05:39:56;;;;;;;9.97;9.77;;;14.50;99.90;;;;;;5015977;27;20464;-70
2023/10/29 05:42:23;;;;;;;9.30;9.10;;;14.40;99.90;;;;;;5025269;27;20481;-71
2023/10/29 05:44:50;;;;;;;9.73;9.53;;;14.40;99.90;;;;;;5011348;27;20488;-71
2023/10/29 05:47:16;;;;;;;9.53;9.33;;;14.40;99.90;;;;;;5026106;27;20453;-73
2023/10/29 05:49:45;;;;;;;9.70;9.50;;;14.30;99.90;;;;;;5019486;27;20481;-73
2023/10/29 05:52:11;;;;;;;10.03;9.83;;;14.30;99.90;;;;;;5024755;28;20476;-70
2023/10/29 05:54:38;;;;;;;9.83;9.63;;;14.30;99.90;;;;;;5019643;28;20856;-69
2023/10/29 05:57:05;;;;;;;9.70;9.50;;;14.30;99.90;;;;;;5025978;27;20498;-70
2023/10/29 05:59:32;;;;;;;10.00;9.80;;;14.20;99.90;;;;;;5019890;27;20574;-70
2023/10/29 06:01:59;;;;;;;9.67;9.47;;;14.10;99.90;;;;;;5028307;27;20446;-69
2023/10/29 06:04:27;;;;;;;9.60;9.40;;;14.10;99.90;;;;;;5013360;27;20471;-69
2023/10/29 06:06:55;;;;;;;10.10;9.90;;;14.10;99.90;;;;;;5016264;27;20491;-70
2023/10/29 06:09:22;;;;;;;9.03;8.83;;;14.10;99.90;;;;;;5020682;27;20467;-69
2023/10/29 06:11:49;;;;;;;9.47;9.27;;;14.20;99.90;;;;;;5016258;27;20459;-70
2023/10/29 06:14:15;;;;;;;10.00;9.80;;;14.20;99.90;;;;;;5017640;27;20471;-71
2023/10/29 06:16:42;;;;;;;9.70;9.50;;;14.20;99.90;;;;;;5020839;27;20498;-72
2023/10/29 06:19:09;;;;;;;9.90;9.70;;;14.20;99.90;;;;;;5014434;27;21307;-70
2023/10/29 06:21:36;;;;;;;9.70;9.50;;;14.20;99.90;;;;;;5021550;27;20933;-70
2023/10/29 06:24:05;;;;;;;10.20;10.00;;;14.10;99.90;;;;;;5022895;27;20473;-70
2023/10/29 06:26:31;;;;;;;10.10;9.90;;;14.10;99.90;;;;;;5023164;27;20473;-71
2023/10/29 06:28:58;;;;;;;9.63;9.43;;;14.10;99.90;;;;;;5027617;27;20465;-69
2023/10/29 06:31:29;;;;;;;9.43;9.23;;;14.00;99.90;;;;;;5019222;27;20461;-71
2023/10/29 06:33:55;;;;;;;9.73;9.53;;;14.00;99.90;;;;;;5009927;28;20553;-70
2023/10/29 06:36:22;;;;;;;9.77;9.57;;;14.00;99.90;;;;;;5019856;28;20509;-70
2023/10/29 06:38:49;;;;;;;9.50;9.30;;;14.00;99.90;;;;;;5018416;27;20465;-69
2023/10/29 06:41:18;;;;;;;9.73;9.53;;;14.00;99.90;;;;;;5021716;27;20578;-74
2023/10/29 06:43:45;;;;;;;9.83;9.63;;;14.00;99.90;;;;;;5016276;27;20536;-71
2023/10/29 06:46:12;;;;;;;9.00;8.83;;;14.00;99.90;;;;;;5024336;27;20707;-70
2023/10/29 06:48:41;;;;;;;9.97;9.77;;;14.00;99.90;;;;;;5016521;27;20471;-71
2023/10/29 06:51:09;;;;;;;9.97;9.77;;;14.00;99.90;;;;;;5020302;27;20483;-70
2023/10/29 06:53:35;;;;;;;9.90;9.70;;;14.00;99.90;;;;;;5022851;27;20548;-71
2023/10/29 06:56:03;;;;;;;9.90;9.70;;;13.90;99.90;;;;;;5019133;27;20977;-71
2023/10/29 06:58:31;;;;;;;9.60;9.40;;;13.90;99.90;;;;;;5018080;27;21000;-71
2023/10/29 07:01:03;;;;;;;9.23;9.03;;;13.90;99.90;;;;;;5011562;27;20555;-71
2023/10/29 07:03:30;;;;;;;9.40;9.20;;;13.90;99.90;;;;;;5015593;27;20546;-71
2023/10/29 07:06:05;;;;;;;8.90;8.77;;;13.90;99.90;;;;;;5016084;27;20466;-71
2023/10/29 07:08:32;;;;;;;9.70;9.50;;;13.80;99.90;;;;;;5021054;27;20473;-71
2023/10/29 07:11:00;;;;;;;9.43;9.23;;;13.70;99.90;;;;;;5023489;27;20446;-71
2023/10/29 07:13:27;;;;;;;9.43;9.23;;;13.60;99.90;;;;;;5015065;27;20556;-73
2023/10/29 07:15:56;;;;;;;9.93;9.73;;;13.60;99.90;;;;;;5021127;28;20495;-73
2023/10/29 07:18:23;;;;;;;9.60;9.40;;;13.50;99.90;;;;;;5013441;27;20875;-71
2023/10/29 07:20:52;;;;;;;9.97;9.77;;;13.50;99.90;;;;;;5021871;28;20461;-71
2023/10/29 07:23:19;;;;;;;9.40;9.20;;;13.50;99.90;;;;;;5014071;28;20556;-71
2023/10/29 07:25:47;;;;;;;10.10;9.90;;;13.50;99.90;;;;;;5040140;27;20500;-72
2023/10/29 07:28:14;;;;;;;9.33;9.13;;;13.50;99.90;;;;;;5035936;27;20462;-72
2023/10/29 07:30:41;;;;;;;9.70;9.50;;;13.50;99.90;;;;;;5020479;27;20479;-70
2023/10/29 07:33:09;;;;;;;9.53;9.33;;;13.50;99.90;;;;;;5018073;27;20475;-69
2023/10/29 07:35:36;;;;;;;9.80;9.60;;;13.50;99.90;;;;;;5022410;28;20488;-70
2023/10/29 07:38:03;;;;;;;9.40;9.20;;;13.40;99.90;;;;;;5021656;27;20496;-70
2023/10/29 07:40:30;;;;;;;9.73;9.53;;;13.40;99.90;;;;;;5011994;27;20454;-71
2023/10/29 07:42:57;;;;;;;9.60;9.40;;;13.40;99.90;;;;;;5022827;27;21015;-72
2023/10/29 07:45:24;;;;;;;9.27;9.07;;;13.40;99.90;;;;;;5017512;28;20484;-72
2023/10/29 07:47:51;;;;;;;9.33;9.13;;;13.40;99.90;;;;;;5013643;27;20780;-72
2023/10/29 07:50:21;;;;;;;9.50;9.30;;;13.40;99.90;;;;;;5019169;28;20458;-70
2023/10/29 07:52:47;;;;;;;9.40;9.20;;;13.40;99.90;;;;;;5015797;27;20547;-70
2023/10/29 07:55:14;;;;;;;9.43;9.23;;;13.40;99.90;;;;;;5020250;27;20463;-71
2023/10/29 07:57:41;;;;;;;9.17;8.97;;;13.40;99.90;;;;;;5018864;27;20500;-71
2023/10/29 08:00:10;;;;;;;8.87;8.70;;;13.40;99.90;;;;;;5022066;27;20467;-70
2023/10/29 08:02:37;;;;;;;9.00;8.80;;;13.40;99.90;;;;;;5018949;27;20469;-71
2023/10/29 08:05:05;;;;;;;9.37;9.17;;;13.40;99.90;;;;;;5024089;28;20463;-71
2023/10/29 08:07:34;;;;;;;9.27;9.07;;;13.40;99.90;;;;;;5017276;27;20482;-71
2023/10/29 08:10:01;;;;;;;9.33;9.13;;;13.40;99.90;;;;;;5025385;27;20801;-73
2023/10/29 08:12:29;;;;;;;9.00;8.80;;;13.40;99.90;;;;;;5022474;27;20476;-70
2023/10/29 08:14:56;;;;;;;9.30;9.10;;;13.40;99.90;;;;;;5020630;27;20884;-71
2023/10/29 08:17:23;;;;;;;9.23;9.03;;;13.40;99.90;;;;;;5011945;28;20494;-72
2023/10/29 08:19:49;;;;;;;9.70;9.50;;;13.40;99.90;;;;;;5021281;27;20963;-71
2023/10/29 08:22:17;;;;;;;9.70;9.50;;;13.40;99.90;;;;;;5024757;27;20966;-72
2023/10/29 08:24:45;;;;;;;9.23;9.03;;;13.50;99.90;;;;;;5025003;28;20807;-70
2023/10/29 08:27:12;;;;;;;9.10;8.90;;;13.50;99.90;;;;;;5013105;28;20474;-71
2023/10/29 08:29:41;;;;;;;9.90;9.70;;;13.60;99.90;;;;;;5016741;28;20553;-71
2023/10/29 08:32:08;;;;;;;9.93;9.73;;;13.60;99.90;;;;;;5023493;27;20462;-69
2023/10/29 08:34:35;;;;;;;10.20;10.00;;;13.70;99.90;;;;;;5024541;28;20457;-69
2023/10/29 08:37:02;;;;;;;10.17;9.97;;;13.80;99.90;;;;;;5014115;28;20485;-69
2023/10/29 08:39:29;;;;;;;10.20;10.00;;;13.80;99.90;;;;;;5022746;28;20461;-73
2023/10/29 08:42:00;;;;;;;10.40;10.20;;;13.90;99.90;;;;;;5010428;28;20536;-70
2023/10/29 08:44:27;;;;;;;10.43;10.23;;;14.00;99.90;;;;;;5014482;28;20494;-72
2023/10/29 08:46:54;;;;;;;10.27;10.07;;;14.10;99.90;;;;;;5016347;28;20806;-71
2023/10/29 08:49:20;;;;;;;10.40;10.20;;;14.20;99.90;;;;;;5017148;28;20472;-70
2023/10/29 08:51:47;;;;;;;10.57;10.37;;;14.20;99.90;;;;;;5023129;28;20991;-72
2023/10/29 08:54:14;;;;;;;10.30;10.10;;;14.30;99.90;;;;;;5019692;28;20474;-73
2023/10/29 08:56:41;;;;;;;10.70;10.50;;;14.30;99.90;;;;;;5008799;28;20902;-71
2023/10/29 08:59:09;;;;;;;11.07;10.77;;;14.40;99.90;;;;;;5015727;28;20906;-72
2023/10/29 09:01:36;;;;;;;10.20;10.00;;;14.50;99.90;;;;;;5013982;28;20922;-71
2023/10/29 09:04:04;;;;;;;10.40;10.20;;;14.50;99.90;;;;;;5019692;28;20887;-73
2023/10/29 09:06:32;;;;;;;10.33;10.13;;;14.50;99.90;;;;;;5021116;28;20567;-70
2023/10/29 09:08:59;;;;;;;10.43;10.23;;;14.50;99.90;;;;;;5018889;28;20474;-71
2023/10/29 09:11:26;;;;;;;10.23;10.03;;;14.50;99.90;;;;;;5015690;28;20481;-73
2023/10/29 09:13:53;;;;;;;10.00;9.80;;;14.60;99.90;;;;;;5015132;28;20463;-72
2023/10/29 09:16:21;;;;;;;10.37;10.17;;;14.60;99.90;;;;;;5020365;27;21075;-71
2023/10/29 09:18:49;;;;;;;10.30;10.10;;;14.70;99.90;;;;;;5023480;27;20883;-72
2023/10/29 09:21:16;;;;;;;10.90;10.67;;;14.70;99.90;;;;;;5020363;27;20465;-70
2023/10/29 09:23:43;;;;;;;10.80;10.60;;;14.70;99.90;;;;;;5023692;27;20467;-73
2023/10/29 09:26:10;;;;;;;10.30;10.10;;;14.70;99.90;;;;;;5027050;28;20464;-70
2023/10/29 09:28:37;;;;;;;10.70;10.50;;;14.70;99.90;;;;;;5016095;27;20475;-71
2023/10/29 09:31:04;;;;;;;10.70;10.50;;;14.70;99.90;;;;;;5017379;27;20583;-70
2023/10/29 09:33:32;;;;;;;10.33;10.13;;;14.80;99.90;;;;;;5021724;27;20454;-71
2023/10/29 09:36:00;;;;;;;11.07;10.77;;;14.90;99.90;;;;;;5020755;27;20462;-71
2023/10/29 09:38:27;;;;;;;11.50;11.20;;;15.00;99.90;;;;;;5025471;27;20466;-71
2023/10/29 09:40:53;;;;;;;10.73;10.53;;;15.10;99.90;;;;;;5012505;27;20479;-70
2023/10/29 09:43:23;;;;;;;10.90;10.63;;;15.20;99.90;;;;;;5017869;27;20628;-69
2023/10/29 09:45:52;;;;;;;10.90;10.60;;;15.30;99.90;;;;;;5026484;27;20538;-70
2023/10/29 09:48:19;;;;;;;11.10;10.80;;;15.30;99.90;;;;;;5023494;27;20462;-71
2023/10/29 09:50:49;;;;;;;11.00;10.70;;;15.40;99.90;;;;;;5019276;27;20475;-73
2023/10/29 09:53:16;;;;;;;10.50;10.30;;;15.50;99.90;;;;;;5014789;27;21383;-70
2023/10/29 09:55:43;;;;;;;11.20;10.90;;;15.60;99.90;;;;;;5018612;27;20507;-71
2023/10/29 09:58:10;;;;;;;11.77;11.47;;;15.80;99.90;;;;;;5018805;27;21399;-70
2023/10/29 10:00:37;;;;;;;11.20;10.90;;;15.80;99.90;;;;;;5025800;27;20456;-71
2023/10/29 10:03:04;;;;;;;11.40;11.10;;;15.90;99.90;;;;;;5022292;27;20464;-70
2023/10/29 10:05:32;;;;;;;11.93;11.63;;;16.00;99.90;;;;;;5017459;27;20459;-70
2023/10/29 10:08:01;;;;;;;11.50;11.20;;;16.00;99.90;;;;;;5027767;27;20447;-71
2023/10/29 10:10:47;;;;;;;11.57;11.27;;;16.00;99.90;;;;;;5022421;27;20583;-70
2023/10/29 10:13:15;;;;;;;11.53;11.23;;;16.10;99.90;;;;;;5013067;27;20563;-71
2023/10/29 10:15:43;;;;;;;11.73;11.43;;;16.10;99.90;;;;;;5026884;27;20555;-70
2023/10/29 10:18:11;;;;;;;11.50;11.20;;;16.20;99.90;;;;;;5022367;27;20503;-71
2023/10/29 10:20:37;;;;;;;11.90;11.60;;;16.20;99.90;;;;;;5025028;27;21277;-71
2023/10/29 10:23:08;;;;;;;11.80;11.50;;;16.20;99.90;;;;;;5026346;27;20475;-72
2023/10/29 10:25:35;;;;;;;11.70;11.40;;;16.20;99.90;;;;;;5027290;27;20566;-72
2023/10/29 10:28:03;;;;;;;11.20;10.90;;;16.10;99.90;;;;;;5020096;27;20915;-72
2023/10/29 10:30:32;;;;;;;11.57;11.27;;;16.30;99.90;;;;;;5026884;27;20492;-72
2023/10/29 10:33:10;;;;;;;12.03;11.73;;;17.00;99.90;;;;;;5018256;27;20473;-74
2023/10/29 10:35:44;;;;;;;11.63;11.33;;;17.50;99.90;;;;;;5027799;27;20593;-72
2023/10/29 10:38:13;;;;;;;11.63;11.33;;;18.10;99.90;;;;;;5025490;27;20496;-71
2023/10/29 10:40:39;;;;;;;12.00;11.70;;;18.40;99.90;;;;;;5027264;27;20817;-70
2023/10/29 10:43:08;;;;;;;11.87;11.57;;;18.60;99.90;;;;;;5015127;27;20494;-71
2023/10/29 10:45:37;;;;;;;11.90;11.60;;;18.60;99.90;;;;;;5027124;27;20473;-71
2023/10/29 10:48:06;;;;;;;11.50;11.20;;;18.70;99.90;;;;;;5017377;28;20779;-72
2023/10/29 10:50:35;;;;;;;11.90;11.60;;;18.90;99.90;;;;;;5023886;27;20510;-72
2023/10/29 10:53:03;;;;;;;11.80;11.50;;;18.80;99.90;;;;;;5023638;27;20526;-73
2023/10/29 10:55:31;;;;;;;11.30;11.00;;;18.60;99.90;;;;;;5027243;27;20510;-71
2023/10/29 10:58:00;;;;;;;12.00;11.70;;;18.50;99.90;;;;;;5021386;28;20493;-73
2023/10/29 11:00:32;;;;;;;11.80;11.50;;;18.10;99.90;;;;;;5022325;27;20462;-72
2023/10/29 11:03:00;;;;;;;12.50;12.10;;;17.90;99.90;;;;;;5011379;27;20553;-72
2023/10/29 11:05:30;;;;;;;11.30;11.00;;;18.00;99.90;;;;;;5022656;27;20465;-73
2023/10/29 11:07:58;;;;;;;11.57;11.27;;;18.10;99.90;;;;;;5026683;27;20464;-76
2023/10/29 11:10:26;;;;;;;11.57;11.27;;;18.20;99.90;;;;;;5022096;27;20522;-71
2023/10/29 11:12:54;;;;;;;11.40;11.10;;;18.60;99.90;;;;;;5026577;27;20979;-73
2023/10/29 11:15:23;;;;;;;11.83;11.53;;;18.50;99.90;;;;;;5023699;27;20469;-70
2023/10/29 11:17:57;;;;;;;12.53;12.13;;;18.30;99.90;;;;;;5012318;27;20493;-70
2023/10/29 11:20:53;;;;;;;12.10;11.80;;;18.10;99.90;;;;;;5023667;27;20513;-72
2023/10/29 11:23:25;;;;;;;11.80;11.50;;;17.90;99.90;;;;;;5022425;27;20464;-75
2023/10/29 11:26:24;;;;;;;11.93;11.63;;;17.70;99.90;;;;;;5024371;27;20483;-70
2023/10/29 11:28:53;;;;;;;12.10;11.80;;;17.30;99.90;;;;;;5015636;27;20472;-73
2023/10/29 11:31:21;;;;;;;11.70;11.40;;;17.00;99.90;;;;;;5019412;27;20971;-71
2023/10/29 11:34:08;;;;;;;21.80;20.60;;;16.90;99.90;;;;;;5016532;27;21204;-71
2023/10/29 11:36:37;;;;;;;24.00;22.50;;;16.60;99.90;;;;;;5026359;27;20460;-71
2023/10/29 11:39:31;;;;;;;21.00;19.70;;;15.70;99.90;;;;;;5020011;28;20472;-72
2023/10/29 11:41:59;;;;;;;18.60;17.60;;;15.00;99.90;;;;;;5012078;27;20479;-72
2023/10/29 11:44:29;;;;;;;16.30;15.50;;;14.70;99.90;;;;;;5022049;27;20494;-72
2023/10/29 11:47:03;;;;;;;14.63;14.03;;;14.50;99.90;;;;;;5018993;27;20496;-74
2023/10/29 11:49:31;;;;;;;12.90;12.50;;;14.20;99.90;;;;;;5023447;28;20457;-71
2023/10/29 11:52:02;;;;;;;11.70;11.40;;;14.00;99.90;;;;;;5026064;27;20453;-72
2023/10/29 11:54:29;;;;;;;11.20;10.90;;;14.10;99.90;;;;;;5021234;27;20451;-72
2023/10/29 11:56:57;;;;;;;10.30;10.10;;;14.20;99.90;;;;;;5012696;27;20544;-72
2023/10/29 11:59:24;;;;;;;8.67;8.57;;;14.10;99.90;;;;;;5023194;27;20863;-72
2023/10/29 12:01:53;;;;;;;9.33;9.13;;;14.10;99.90;;;;;;5017618;27;20458;-71
2023/10/29 12:04:20;;;;;;;8.53;8.43;;;14.00;99.90;;;;;;5015727;27;21012;-69
2023/10/29 12:06:48;;;;;;;8.10;8.00;;;13.80;99.90;;;;;;5026043;27;20459;-71
2023/10/29 12:09:20;;;;;;;7.37;7.27;;;13.70;99.90;;;;;;5027549;27;20511;-72
2023/10/29 12:11:48;;;;;;;7.63;7.53;;;13.60;99.90;;;;;;5026242;28;20869;-72
2023/10/29 12:14:17;;;;;;;7.40;7.30;;;13.70;99.90;;;;;;5026010;27;20451;-71
2023/10/29 12:16:44;;;;;;;6.63;6.53;;;13.70;99.90;;;;;;5022204;28;20468;-71
2023/10/29 12:19:13;;;;;;;6.20;6.10;;;13.80;99.90;;;;;;5023424;28;20466;-71
2023/10/29 12:21:52;;;;;;;6.50;6.40;;;13.80;99.90;;;;;;5025689;27;20462;-70
2023/10/29 12:24:18;;;;;;;6.57;6.47;;;14.10;99.90;;;;;;5022503;28;21443;-71
2023/10/29 12:26:45;;;;;;;6.23;6.13;;;14.20;99.90;;;;;;5017732;27;20558;-71
2023/10/29 12:29:13;;;;;;;5.83;5.73;;;14.10;99.90;;;;;;5023940;27;20458;-72
2023/10/29 12:31:48;;;;;;;6.87;6.77;;;14.00;99.90;;;;;;5026478;28;20510;-72
2023/10/29 12:34:17;;;;;;;6.57;6.47;;;14.10;99.90;;;;;;5011848;27;20534;-69
2023/10/29 12:36:48;;;;;;;7.83;7.73;;;13.90;99.90;;;;;;5019071;28;20522;-70
2023/10/29 12:39:16;;;;;;;7.67;7.57;;;13.70;99.90;;;;;;5016237;28;20457;-70
2023/10/29 12:41:52;;;;;;;6.90;6.80;;;13.70;99.90;;;;;;5025277;28;20465;-72
2023/10/29 12:44:19;;;;;;;6.70;6.60;;;13.80;99.90;;;;;;5023212;28;20516;-73